This is the latest recevied weather packets stored in our database for station/object WX2NJ. If no packets are shown the sender has not sent any weather packets the latest 10 day(s).
| Time | Temp. | Humidity | Pressure | Rain* | Wind** | Luminosity | Snow |
|---|---|---|---|---|---|---|---|
| 1777691643 | 10° C | 76% | 1016.2 hPa | 0 mm | - | 0 W/m² | - |
| 1777691341 | 10° C | 76% | 1016.3 hPa | 0 mm | - | 0 W/m² | - |
| 1777691039 | 10° C | 76% | 1016 hPa | 0 mm | - | 0 W/m² | - |
| 1777690736 | 10° C | 75% | 1016.3 hPa | 0 mm | - | 0 W/m² | - |
| 1777690433 | 10° C | 75% | 1016.4 hPa | 0 mm | - | 0 W/m² | - |
| 1777690131 | 10° C | 74% | 1016.7 hPa | 0 mm | - | 0 W/m² | - |
| 1777689829 | 10° C | 74% | 1016.6 hPa | 0 mm | - | 0 W/m² | - |
| 1777689527 | 10.56° C | 73% | 1016.8 hPa | 0 mm | - | 0 W/m² | - |
| 1777689224 | 10.56° C | 72% | 1016.7 hPa | 0 mm | - | 0 W/m² | - |
| 1777688922 | 10° C | 70% | 1016.8 hPa | 0 mm | - | 0 W/m² | - |
| 1777688618 | 10° C | 69% | 1016.5 hPa | 0 mm | - | 0 W/m² | - |
| 1777688315 | 10° C | 68% | 1016.9 hPa | 0 mm | - | 0 W/m² | - |
| 1777687710 | 10° C | 67% | 1016.7 hPa | 0 mm | - | 0 W/m² | - |
| 1777674376 | 15° C | 58% | 1014.6 hPa | 0 mm | - | 40 W/m² | - |
| 1777673770 | 15.56° C | 55% | 1014.5 hPa | 0 mm | - | 51 W/m² | - |
| 1777673468 | 15.56° C | 55% | 1014.3 hPa | 0 mm | - | 89 W/m² | - |
| 1777673165 | 15.56° C | 55% | 1014.5 hPa | 0 mm | - | 84 W/m² | - |
| 1777671949 | 16.11° C | 50% | 1014.6 hPa | 0 mm | - | 160 W/m² | - |
| 1777671342 | 16.11° C | 58% | 1014.7 hPa | 0 mm | - | 214 W/m² | - |
| 1777671038 | 15.56° C | 58% | 1014.6 hPa | 0 mm | - | 184 W/m² | - |
| 1777670432 | 16.11° C | 57% | 1014.7 hPa | 0 mm | - | 148 W/m² | - |
| 1777670128 | 15.56° C | 57% | 1014.6 hPa | 0 mm | - | 106 W/m² | - |
| 1777669827 | 15.56° C | 58% | 1014.8 hPa | 0 mm | - | 186 W/m² | - |
| 1777669522 | 16.11° C | 57% | 1014.7 hPa | 0 mm | - | 120 W/m² | - |
| 1777669219 | 16.11° C | 57% | 1014.5 hPa | 0 mm | - | 236 W/m² | - |
* Rain latest hour (hover to see other rain measurements)
** Current wind speed in m/s (hover to see current wind gust speed)